Time;durP1;ratioP1;P1;durP2;ratioP2;P2;SDS_P1;SDS_P2;PMS_P1;PMS_P2;Temp;Humidity;BMP_temperature;BMP_pressure;BME280_temperature;BME280_humidity;BME280_pressure;Samples;Min_cycle;Max_cycle;Signal;HPM_P1;HPM_P2
2023/09/02 00:01:23;;;;;;;7.05;4.25;;;13.80;99.90;;;;;;5058685;28;20049;-73
2023/09/02 00:03:49;;;;;;;7.18;4.22;;;13.80;99.90;;;;;;5078675;28;20055;-73
2023/09/02 00:06:15;;;;;;;6.80;4.38;;;13.70;99.90;;;;;;5059735;28;20055;-73
2023/09/02 00:08:41;;;;;;;7.88;4.45;;;13.60;99.90;;;;;;5058310;28;20123;-72
2023/09/02 00:11:06;;;;;;;5.60;4.03;;;13.60;99.90;;;;;;5076364;28;20405;-72
2023/09/02 00:13:32;;;;;;;6.38;4.70;;;13.60;99.90;;;;;;5082756;28;20104;-72
2023/09/02 00:15:58;;;;;;;7.47;4.72;;;13.50;99.90;;;;;;5089148;28;20040;-73
2023/09/02 00:18:23;;;;;;;8.52;4.82;;;13.50;99.90;;;;;;5062822;28;20044;-73
2023/09/02 00:20:49;;;;;;;8.48;5.10;;;13.50;99.90;;;;;;5062333;28;20048;-72
2023/09/02 00:23:14;;;;;;;8.80;5.03;;;13.40;99.90;;;;;;5062254;28;20384;-73
2023/09/02 00:25:40;;;;;;;8.60;5.03;;;13.40;99.90;;;;;;5086529;28;20032;-73
2023/09/02 00:28:06;;;;;;;6.97;4.57;;;13.40;99.90;;;;;;5065003;28;20465;-73
2023/09/02 00:30:31;;;;;;;7.95;5.30;;;13.40;99.90;;;;;;5079968;28;20051;-72
2023/09/02 00:32:57;;;;;;;8.00;4.70;;;13.30;99.90;;;;;;5062928;28;20091;-73
2023/09/02 00:35:23;;;;;;;8.30;5.10;;;13.30;99.90;;;;;;5082611;28;20043;-73
2023/09/02 00:37:48;;;;;;;7.10;4.60;;;13.30;99.90;;;;;;5084008;28;20051;-73
2023/09/02 00:40:17;;;;;;;9.32;4.85;;;13.30;99.90;;;;;;5064423;28;20089;-73
2023/09/02 00:42:44;;;;;;;8.05;4.65;;;13.30;99.90;;;;;;5087097;28;20041;-72
2023/09/02 00:45:10;;;;;;;8.57;4.55;;;13.30;99.90;;;;;;5062507;28;20045;-73
2023/09/02 00:47:36;;;;;;;8.82;5.10;;;13.20;99.90;;;;;;5066784;28;20056;-73
2023/09/02 00:50:02;;;;;;;7.57;4.95;;;13.20;99.90;;;;;;5066923;28;20066;-73
2023/09/02 00:52:27;;;;;;;7.70;4.97;;;13.20;99.90;;;;;;5082184;28;20078;-73
2023/09/02 00:54:53;;;;;;;8.50;4.93;;;13.20;99.90;;;;;;5083999;28;20476;-73
2023/09/02 00:57:19;;;;;;;8.68;4.97;;;13.20;99.90;;;;;;5064442;28;20463;-73
2023/09/02 00:59:44;;;;;;;9.75;4.97;;;13.20;99.90;;;;;;5084961;28;20040;-73
2023/09/02 01:02:11;;;;;;;6.72;4.78;;;13.10;99.90;;;;;;5085006;28;20139;-73
2023/09/02 01:04:37;;;;;;;6.85;4.82;;;13.10;99.90;;;;;;5082878;28;20047;-73
2023/09/02 01:07:02;;;;;;;7.03;4.80;;;13.10;99.90;;;;;;5065157;28;20036;-73
2023/09/02 01:09:30;;;;;;;11.57;5.22;;;13.10;99.90;;;;;;5066630;28;20041;-73
2023/09/02 01:11:56;;;;;;;7.47;5.15;;;13.00;99.90;;;;;;5066902;28;20047;-73
2023/09/02 01:14:22;;;;;;;6.47;4.80;;;13.00;99.90;;;;;;5068211;28;20390;-73
2023/09/02 01:16:48;;;;;;;6.57;4.95;;;13.00;99.90;;;;;;5082584;28;20090;-72
2023/09/02 01:19:16;;;;;;;7.85;5.45;;;13.00;99.90;;;;;;5084359;28;20050;-72
2023/09/02 01:21:50;;;;;;;7.70;4.95;;;12.90;99.90;;;;;;5072343;28;20406;-73
2023/09/02 01:24:27;;;;;;;8.27;5.32;;;12.90;99.90;;;;;;5087664;28;20127;-73
2023/09/02 01:27:12;;;;;;;6.50;4.90;;;12.90;99.90;;;;;;5077453;28;20045;-73
2023/09/02 01:30:07;;;;;;;7.95;4.95;;;12.80;99.90;;;;;;5068300;28;20052;-73
2023/09/02 01:32:35;;;;;;;7.30;4.57;;;12.80;99.90;;;;;;5065064;28;20055;-72
2023/09/02 01:35:06;;;;;;;7.88;5.07;;;12.80;99.90;;;;;;5065091;28;20053;-73
2023/09/02 01:37:42;;;;;;;8.05;5.18;;;12.80;99.90;;;;;;5069082;28;20051;-72
2023/09/02 01:40:12;;;;;;;7.30;4.88;;;12.70;99.90;;;;;;5086653;28;20036;-72
2023/09/02 01:42:39;;;;;;;8.02;4.97;;;12.70;99.90;;;;;;5067693;28;20551;-72
2023/09/02 01:45:06;;;;;;;8.70;5.40;;;12.70;99.90;;;;;;5065682;28;20041;-72
2023/09/02 01:47:31;;;;;;;7.68;5.03;;;12.60;99.90;;;;;;5085494;28;20052;-72
2023/09/02 01:50:01;;;;;;;6.80;4.78;;;12.60;99.90;;;;;;5068892;28;20686;-72
2023/09/02 01:52:30;;;;;;;7.38;4.82;;;12.60;99.90;;;;;;5069064;28;20052;-72
2023/09/02 01:54:56;;;;;;;7.78;4.80;;;12.50;99.90;;;;;;5069763;28;20048;-73
2023/09/02 01:57:22;;;;;;;8.52;5.30;;;12.50;99.90;;;;;;5066841;28;20423;-72
2023/09/02 01:59:48;;;;;;;8.02;5.63;;;12.50;99.90;;;;;;5087604;28;20040;-72
2023/09/02 02:02:16;;;;;;;7.40;5.40;;;12.40;99.90;;;;;;5068456;28;20059;-72
2023/09/02 02:04:46;;;;;;;8.40;4.75;;;12.40;99.90;;;;;;5068849;28;20044;-72
2023/09/02 02:07:14;;;;;;;8.25;4.90;;;12.40;99.90;;;;;;5084166;28;20089;-72
2023/09/02 02:09:43;;;;;;;8.85;5.18;;;12.50;99.90;;;;;;5069185;28;20048;-72
2023/09/02 02:12:10;;;;;;;7.68;5.63;;;12.40;99.90;;;;;;5069085;28;20483;-73
2023/09/02 02:14:36;;;;;;;7.93;5.15;;;12.40;99.90;;;;;;5087325;28;20035;-72
2023/09/02 02:17:03;;;;;;;8.25;5.22;;;12.30;99.90;;;;;;5065743;28;20059;-73
2023/09/02 02:19:29;;;;;;;7.63;4.95;;;12.30;99.90;;;;;;5068648;28;20051;-73
2023/09/02 02:21:55;;;;;;;7.50;5.25;;;12.30;99.90;;;;;;5070058;28;20127;-73
2023/09/02 02:24:21;;;;;;;8.90;5.30;;;12.30;99.90;;;;;;5069425;28;20465;-73
2023/09/02 02:26:47;;;;;;;7.97;5.03;;;12.30;99.90;;;;;;5069500;28;20065;-73
2023/09/02 02:29:12;;;;;;;9.88;5.40;;;12.30;99.90;;;;;;5085331;28;20582;-72
2023/09/02 02:31:38;;;;;;;9.95;5.75;;;12.30;99.90;;;;;;5069315;28;20394;-72
2023/09/02 02:34:04;;;;;;;8.50;5.57;;;12.20;99.90;;;;;;5069662;28;20403;-72
2023/09/02 02:36:29;;;;;;;7.68;5.30;;;12.30;99.90;;;;;;5088966;28;20036;-72
2023/09/02 02:38:55;;;;;;;7.60;5.30;;;12.20;99.90;;;;;;5087693;28;20115;-73
2023/09/02 02:41:21;;;;;;;9.68;5.22;;;12.20;99.90;;;;;;5067907;28;20573;-72
2023/09/02 02:43:46;;;;;;;7.28;5.00;;;12.20;99.90;;;;;;5088389;28;20380;-72
2023/09/02 02:46:12;;;;;;;8.45;5.75;;;11.20;99.90;;;;;;5089244;28;20044;-72
2023/09/02 02:48:37;;;;;;;7.80;5.60;;;12.20;99.90;;;;;;5071449;28;20043;-73
2023/09/02 02:51:03;;;;;;;9.45;5.30;;;12.20;99.90;;;;;;5085841;28;20037;-73
2023/09/02 02:53:29;;;;;;;11.00;6.03;;;12.20;99.90;;;;;;5087720;28;20052;-72
2023/09/02 02:55:54;;;;;;;9.25;5.40;;;12.20;99.90;;;;;;5071065;28;20198;-73
2023/09/02 02:58:21;;;;;;;8.45;5.43;;;12.20;99.90;;;;;;5073123;28;20410;-73
2023/09/02 03:00:49;;;;;;;8.93;5.68;;;12.10;99.90;;;;;;5089023;28;20095;-72
2023/09/02 03:03:15;;;;;;;8.43;5.63;;;12.10;99.90;;;;;;5069324;28;20044;-73
2023/09/02 03:05:42;;;;;;;9.05;6.03;;;12.10;99.90;;;;;;5082906;28;20498;-72
2023/09/02 03:08:09;;;;;;;10.05;6.22;;;12.10;99.90;;;;;;5061363;28;20047;-73
2023/09/02 03:10:36;;;;;;;9.00;6.38;;;12.00;99.90;;;;;;5072039;28;20048;-72
2023/09/02 03:13:05;;;;;;;9.70;5.53;;;12.10;99.90;;;;;;5070795;28;20048;-72
2023/09/02 03:15:31;;;;;;;9.05;6.00;;;12.10;99.90;;;;;;5069165;28;20048;-72
2023/09/02 03:17:57;;;;;;;9.95;6.30;;;12.10;99.90;;;;;;5072032;28;20047;-72
2023/09/02 03:20:23;;;;;;;10.63;5.95;;;12.10;99.90;;;;;;5089815;28;20483;-72
2023/09/02 03:22:48;;;;;;;8.50;5.53;;;12.00;99.90;;;;;;5071523;28;20143;-71
2023/09/02 03:25:14;;;;;;;9.18;6.20;;;12.00;99.90;;;;;;5089959;28;20032;-71
2023/09/02 03:27:40;;;;;;;10.40;5.90;;;12.00;99.90;;;;;;5057341;28;20051;-72
2023/09/02 03:30:07;;;;;;;8.85;5.82;;;12.00;99.90;;;;;;5055040;28;20403;-72
2023/09/02 03:32:33;;;;;;;10.00;6.20;;;12.00;99.90;;;;;;5061830;28;20040;-72
2023/09/02 03:34:59;;;;;;;9.73;6.43;;;12.00;99.90;;;;;;5071776;28;20048;-72
2023/09/02 03:37:26;;;;;;;9.98;5.95;;;12.00;99.90;;;;;;5071943;28;20395;-72
2023/09/02 03:39:53;;;;;;;10.32;6.22;;;12.00;99.90;;;;;;5072424;28;20048;-72
2023/09/02 03:42:19;;;;;;;9.85;6.57;;;12.00;99.90;;;;;;5091236;28;20399;-72
2023/09/02 03:44:44;;;;;;;10.07;5.93;;;12.00;99.90;;;;;;5072765;28;20513;-72
2023/09/02 03:47:10;;;;;;;9.95;6.45;;;12.00;99.90;;;;;;5075657;28;20048;-72
2023/09/02 03:49:36;;;;;;;8.80;6.00;;;11.90;99.90;;;;;;5076215;28;20129;-72
2023/09/02 03:52:01;;;;;;;9.52;6.25;;;11.90;99.90;;;;;;5057857;28;20045;-72
2023/09/02 03:54:27;;;;;;;8.38;5.75;;;11.90;99.90;;;;;;5057298;28;20049;-72
2023/09/02 03:56:53;;;;;;;8.13;6.20;;;11.90;99.90;;;;;;5057458;28;20041;-72
2023/09/02 03:59:19;;;;;;;8.52;6.20;;;11.90;99.90;;;;;;5066124;28;20126;-72
2023/09/02 04:01:45;;;;;;;10.25;6.43;;;11.80;99.90;;;;;;5075027;28;20060;-72
2023/09/02 04:04:11;;;;;;;9.45;6.13;;;11.80;99.90;;;;;;5058251;28;20040;-72
2023/09/02 04:06:38;;;;;;;11.18;6.07;;;11.80;99.90;;;;;;5059350;28;20388;-72
2023/09/02 04:09:07;;;;;;;9.73;5.88;;;11.80;99.90;;;;;;5080666;28;20464;-73
2023/09/02 04:11:33;;;;;;;9.23;6.05;;;11.70;99.90;;;;;;5077194;28;20406;-73
2023/09/02 04:13:59;;;;;;;9.65;6.30;;;11.70;99.90;;;;;;5058119;28;20029;-72
2023/09/02 04:16:25;;;;;;;12.90;6.40;;;11.70;99.90;;;;;;5058121;28;20041;-72
2023/09/02 04:18:51;;;;;;;11.95;6.97;;;11.70;99.90;;;;;;5058286;28;20502;-73
2023/09/02 04:21:17;;;;;;;10.27;6.82;;;11.70;99.90;;;;;;5058980;28;20044;-72
2023/09/02 04:23:43;;;;;;;9.73;6.68;;;11.70;99.90;;;;;;5088841;28;20036;-72
2023/09/02 04:26:09;;;;;;;10.52;6.28;;;11.60;99.90;;;;;;5076774;28;20044;-72
2023/09/02 04:28:35;;;;;;;9.00;6.18;;;11.60;99.90;;;;;;5058930;28;20178;-72
2023/09/02 04:31:00;;;;;;;9.52;6.78;;;11.60;99.90;;;;;;5058167;28;20048;-72
2023/09/02 04:33:26;;;;;;;9.30;6.32;;;11.60;99.90;;;;;;5090368;28;20036;-72
2023/09/02 04:35:52;;;;;;;9.77;6.70;;;11.60;99.90;;;;;;5077503;28;20051;-72
2023/09/02 04:38:19;;;;;;;10.65;7.05;;;11.60;99.90;;;;;;5076558;28;20049;-72
2023/09/02 04:40:45;;;;;;;9.07;5.78;;;11.60;99.90;;;;;;5081584;28;20036;-73
2023/09/02 04:43:13;;;;;;;11.80;6.22;;;11.50;99.90;;;;;;5062590;28;20464;-72
2023/09/02 04:45:40;;;;;;;7.93;5.95;;;11.60;99.90;;;;;;5080459;28;20471;-72
2023/09/02 04:48:07;;;;;;;10.25;6.32;;;11.50;99.90;;;;;;5059325;28;20040;-72
2023/09/02 04:50:37;;;;;;;9.57;6.25;;;11.50;99.90;;;;;;5064178;28;20029;-72
2023/09/02 04:53:03;;;;;;;9.70;6.55;;;11.50;99.90;;;;;;5064288;28;20052;-72
2023/09/02 04:55:29;;;;;;;11.07;6.30;;;11.50;99.90;;;;;;5061795;28;20052;-72
2023/09/02 04:57:56;;;;;;;9.57;6.45;;;11.80;99.90;;;;;;5078111;28;20036;-72
2023/09/02 05:00:26;;;;;;;8.32;5.78;;;11.50;99.90;;;;;;5065465;28;20051;-72
2023/09/02 05:02:53;;;;;;;10.15;6.70;;;11.50;99.90;;;;;;5075298;28;20056;-72
2023/09/02 05:05:21;;;;;;;9.18;6.28;;;11.50;99.90;;;;;;5074603;28;20055;-72
2023/09/02 05:07:46;;;;;;;10.68;6.15;;;11.50;99.90;;;;;;5063872;28;20504;-72
2023/09/02 05:10:13;;;;;;;9.15;6.43;;;11.50;99.90;;;;;;5068486;28;20048;-72
2023/09/02 05:12:39;;;;;;;10.43;5.97;;;11.50;99.90;;;;;;5055148;28;20048;-72
2023/09/02 05:15:05;;;;;;;9.40;6.60;;;11.60;99.90;;;;;;5070481;28;20246;-72
2023/09/02 05:17:32;;;;;;;8.68;6.82;;;11.50;99.90;;;;;;5076000;28;20041;-72
2023/09/02 05:19:59;;;;;;;9.73;6.50;;;11.50;99.90;;;;;;5073600;28;20414;-72
2023/09/02 05:22:24;;;;;;;11.98;6.43;;;11.50;99.90;;;;;;5056855;28;20052;-73
2023/09/02 05:24:50;;;;;;;9.18;6.40;;;11.60;99.90;;;;;;5062097;28;20051;-72
2023/09/02 05:27:16;;;;;;;11.70;6.50;;;11.60;99.90;;;;;;5079196;28;20040;-72
2023/09/02 05:29:42;;;;;;;10.35;6.93;;;11.60;99.90;;;;;;5064303;28;20130;-71
2023/09/02 05:32:13;;;;;;;8.93;6.18;;;11.60;99.90;;;;;;5057061;28;20044;-72
2023/09/02 05:34:39;;;;;;;10.52;6.57;;;11.60;99.90;;;;;;5061075;28;20033;-73
2023/09/02 05:37:04;;;;;;;9.50;6.63;;;11.70;99.90;;;;;;5063310;28;20093;-72
2023/09/02 05:39:30;;;;;;;8.70;6.20;;;11.80;99.90;;;;;;5060934;28;20064;-72
2023/09/02 05:41:59;;;;;;;11.35;7.15;;;11.80;99.90;;;;;;5060002;28;20051;-73
2023/09/02 05:44:24;;;;;;;9.02;6.43;;;11.80;99.90;;;;;;5080577;28;20089;-74
2023/09/02 05:46:50;;;;;;;10.27;6.47;;;11.80;99.90;;;;;;5059798;28;20119;-73
2023/09/02 05:49:16;;;;;;;8.80;6.05;;;11.90;99.90;;;;;;5083285;28;20028;-73
2023/09/02 05:51:42;;;;;;;11.20;6.85;;;11.90;99.90;;;;;;5077582;28;20028;-73
2023/09/02 05:54:09;;;;;;;10.73;6.82;;;11.90;99.90;;;;;;5065084;28;20067;-72
2023/09/02 05:56:38;;;;;;;10.68;6.50;;;12.00;99.90;;;;;;5081399;28;20044;-73
2023/09/02 05:59:04;;;;;;;10.75;6.60;;;12.00;99.90;;;;;;5084684;28;20048;-74
2023/09/02 06:01:31;;;;;;;10.85;6.57;;;12.10;99.90;;;;;;5058816;28;20057;-74
2023/09/02 06:03:56;;;;;;;11.23;6.60;;;12.10;99.90;;;;;;5073170;28;20040;-71
2023/09/02 06:06:23;;;;;;;9.57;6.43;;;12.10;99.90;;;;;;5056719;28;20093;-71
2023/09/02 06:08:49;;;;;;;10.32;7.00;;;12.20;99.90;;;;;;5055789;28;20082;-71
2023/09/02 06:11:15;;;;;;;12.15;7.18;;;12.30;99.90;;;;;;5061441;28;20127;-71
2023/09/02 06:13:43;;;;;;;10.85;6.72;;;12.40;99.90;;;;;;5056503;28;20040;-71
2023/09/02 06:16:08;;;;;;;14.15;7.80;;;12.50;99.90;;;;;;5071402;28;20040;-71
2023/09/02 06:18:35;;;;;;;10.02;6.70;;;12.50;99.90;;;;;;5075647;28;20044;-75
2023/09/02 06:21:11;;;;;;;12.32;7.35;;;12.60;99.90;;;;;;5055145;28;20071;-77
2023/09/02 06:23:37;;;;;;;10.02;6.88;;;12.70;99.90;;;;;;5076161;28;20048;-73
2023/09/02 06:26:03;;;;;;;11.43;6.55;;;12.70;99.90;;;;;;5058365;28;20134;-71
2023/09/02 06:28:29;;;;;;;10.57;7.43;;;12.80;99.90;;;;;;5074724;28;20155;-71
2023/09/02 06:30:55;;;;;;;11.95;6.95;;;12.90;99.90;;;;;;5056006;28;20048;-71
2023/09/02 06:33:22;;;;;;;10.07;6.82;;;12.90;99.90;;;;;;5057760;28;20037;-71
2023/09/02 06:35:51;;;;;;;10.00;7.03;;;13.00;99.90;;;;;;5071091;28;20048;-71
2023/09/02 06:38:17;;;;;;;10.38;6.90;;;13.10;99.90;;;;;;5072550;28;20080;-70
2023/09/02 06:40:43;;;;;;;11.40;6.97;;;13.20;99.90;;;;;;5073522;28;20455;-71
2023/09/02 06:43:12;;;;;;;11.38;7.15;;;13.40;99.90;;;;;;5072962;28;20496;-71
2023/09/02 06:45:38;;;;;;;11.55;7.50;;;13.30;99.90;;;;;;5059509;28;20087;-72
2023/09/02 06:48:04;;;;;;;10.23;6.95;;;13.50;99.90;;;;;;5058901;28;20044;-71
2023/09/02 06:50:31;;;;;;;10.55;7.45;;;13.60;99.90;;;;;;5071242;28;20123;-71
2023/09/02 06:52:57;;;;;;;10.93;6.97;;;13.70;99.90;;;;;;5072360;28;20391;-71
2023/09/02 06:55:23;;;;;;;10.65;7.43;;;13.90;99.90;;;;;;5055643;28;20040;-72
2023/09/02 06:57:48;;;;;;;14.13;8.25;;;13.90;99.90;;;;;;5074162;28;20047;-71
2023/09/02 07:00:15;;;;;;;9.30;6.70;;;14.00;99.90;;;;;;5056457;28;20044;-71
2023/09/02 07:02:42;;;;;;;12.32;7.50;;;14.20;99.90;;;;;;5074984;28;20044;-71
2023/09/02 07:05:08;;;;;;;12.23;8.13;;;14.20;99.90;;;;;;5052592;28;20079;-70
2023/09/02 07:07:36;;;;;;;10.85;7.63;;;14.40;99.90;;;;;;5072478;28;20037;-70
2023/09/02 07:10:02;;;;;;;13.70;7.20;;;14.50;99.90;;;;;;5054459;28;20048;-70
2023/09/02 07:12:28;;;;;;;8.68;6.03;;;14.60;99.90;;;;;;5072917;28;20040;-71
2023/09/02 07:14:53;;;;;;;10.95;6.45;;;14.80;99.90;;;;;;5055571;28;20115;-71
2023/09/02 07:17:20;;;;;;;11.18;6.95;;;14.90;99.90;;;;;;5056690;28;20537;-71
2023/09/02 07:19:45;;;;;;;10.27;6.93;;;15.30;99.90;;;;;;5073607;28;20048;-71
2023/09/02 07:22:11;;;;;;;9.07;6.30;;;16.40;99.90;;;;;;5053258;28;20236;-75
2023/09/02 07:24:37;;;;;;;7.57;4.72;;;17.90;99.90;;;;;;5053865;28;20389;-74
2023/09/02 07:27:02;;;;;;;7.35;5.32;;;19.30;99.90;;;;;;5053986;28;20094;-71
2023/09/02 07:29:28;;;;;;;6.20;5.00;;;20.50;99.90;;;;;;5061930;28;20080;-70
2023/09/02 07:31:56;;;;;;;7.25;4.40;;;21.60;99.90;;;;;;5084200;28;20082;-71
2023/09/02 07:34:21;;;;;;;5.40;4.35;;;22.50;99.90;;;;;;5078170;28;20104;-71
2023/09/02 07:36:47;;;;;;;6.28;4.63;;;23.30;99.90;;;;;;5064715;28;20135;-71
2023/09/02 07:39:16;;;;;;;5.40;4.10;;;23.90;99.90;;;;;;5071184;28;20093;-72
2023/09/02 07:41:41;;;;;;;7.90;4.40;;;24.50;99.90;;;;;;5060265;28;20439;-72
2023/09/02 07:44:08;;;;;;;5.10;4.25;;;25.00;99.90;;;;;;5071309;28;20033;-74
2023/09/02 07:46:34;;;;;;;5.93;4.13;;;25.50;99.90;;;;;;5053793;28;20041;-74
2023/09/02 07:49:00;;;;;;;5.75;4.30;;;26.00;99.90;;;;;;5053438;28;20036;-74
2023/09/02 07:51:25;;;;;;;5.80;3.90;;;26.50;99.90;;;;;;5054203;28;20078;-74
2023/09/02 07:53:51;;;;;;;6.32;4.13;;;26.60;98.40;;;;;;5053129;28;20037;-73
2023/09/02 07:56:17;;;;;;;5.10;3.53;;;27.10;98.70;;;;;;5053952;28;20144;-73
2023/09/02 07:58:46;;;;;;;5.65;4.32;;;27.40;97.30;;;;;;5054599;28;20123;-72
2023/09/02 08:01:12;;;;;;;7.40;4.40;;;27.60;96.50;;;;;;5069895;28;20114;-74
2023/09/02 08:03:37;;;;;;;6.38;3.78;;;27.90;96.80;;;;;;5073858;28;20048;-72
2023/09/02 08:06:08;;;;;;;4.55;3.15;;;28.40;96.00;;;;;;5073851;28;20044;-74
2023/09/02 08:08:34;;;;;;;5.75;3.50;;;28.70;93.40;;;;;;5090526;28;20452;-76
2023/09/02 08:11:04;;;;;;;4.72;3.47;;;28.90;94.80;;;;;;5073292;28;20051;-75
2023/09/02 08:13:30;;;;;;;5.85;3.60;;;29.20;94.40;;;;;;5092384;28;20032;-74
2023/09/02 08:15:56;;;;;;;3.95;2.70;;;29.40;92.80;;;;;;5091297;28;20040;-75
2023/09/02 08:18:22;;;;;;;4.68;2.50;;;29.40;93.30;;;;;;5074414;28;20051;-76
2023/09/02 08:20:48;;;;;;;4.72;2.78;;;29.60;93.00;;;;;;5091866;28;20048;-74
2023/09/02 08:23:13;;;;;;;4.75;2.80;;;29.60;93.10;;;;;;5072598;28;20044;-75
2023/09/02 08:25:39;;;;;;;4.45;3.13;;;29.70;93.20;;;;;;5073633;28;20403;-77
2023/09/02 08:28:05;;;;;;;6.22;2.80;;;29.90;92.90;;;;;;5091552;28;20036;-77
2023/09/02 08:30:31;;;;;;;4.63;2.35;;;30.30;92.20;;;;;;5091422;28;20040;-73
2023/09/02 08:32:56;;;;;;;4.88;2.08;;;30.50;92.60;;;;;;5094280;28;20040;-78
2023/09/02 08:35:22;;;;;;;3.72;1.92;;;30.70;91.40;;;;;;5064754;28;20037;-71
2023/09/02 08:37:48;;;;;;;3.42;2.20;;;30.80;90.90;;;;;;5082275;28;20052;-72
2023/09/02 08:40:14;;;;;;;5.25;2.05;;;30.70;90.90;;;;;;5095438;28;20039;-71
2023/09/02 08:42:41;;;;;;;3.90;1.83;;;30.80;90.20;;;;;;5076632;28;20040;-71
2023/09/02 08:45:11;;;;;;;5.43;2.17;;;30.90;91.20;;;;;;5095192;28;20036;-72
2023/09/02 08:47:40;;;;;;;24.83;4.00;;;30.80;90.60;;;;;;5077112;28;20078;-72
2023/09/02 08:50:08;;;;;;;5.22;1.90;;;30.80;91.00;;;;;;5076393;28;20497;-73
2023/09/02 08:52:34;;;;;;;3.55;2.10;;;30.60;90.40;;;;;;5069876;28;20041;-71
2023/09/02 08:55:01;;;;;;;4.40;2.10;;;30.90;90.10;;;;;;5056674;28;20040;-75
2023/09/02 08:57:27;;;;;;;4.18;2.00;;;30.70;90.80;;;;;;5091581;28;20048;-77
2023/09/02 08:59:53;;;;;;;3.50;1.92;;;30.80;91.20;;;;;;5076522;28;20055;-73
2023/09/02 09:02:20;;;;;;;4.47;2.08;;;31.20;90.70;;;;;;5095035;28;20106;-72
2023/09/02 09:04:48;;;;;;;3.45;1.80;;;31.60;91.10;;;;;;5076452;28;20040;-79
2023/09/02 09:07:17;;;;;;;4.45;1.98;;;31.50;90.60;;;;;;5076531;28;20047;-77
2023/09/02 09:09:53;;;;;;;4.50;2.30;;;31.50;88.20;;;;;;5095278;28;20036;-75
2023/09/02 09:12:21;;;;;;;5.50;2.65;;;31.50;88.50;;;;;;5076374;28;20044;-73
2023/09/02 09:14:53;;;;;;;3.53;2.30;;;31.50;89.80;;;;;;5076729;28;20063;-73
2023/09/02 09:17:19;;;;;;;4.47;2.95;;;31.20;90.20;;;;;;5076050;28;20130;-73
2023/09/02 09:19:45;;;;;;;4.05;2.78;;;31.80;90.10;;;;;;5075830;28;20044;-73
2023/09/02 09:22:11;;;;;;;5.18;3.08;;;31.90;88.10;;;;;;5076605;28;20058;-74
2023/09/02 09:24:37;;;;;;;4.70;2.72;;;31.50;88.50;;;;;;5075791;28;20047;-74
2023/09/02 09:27:06;;;;;;;8.18;2.85;;;31.50;89.10;;;;;;5076276;28;20127;-74
2023/09/02 09:29:40;;;;;;;4.55;2.80;;;31.50;89.50;;;;;;5075956;28;20043;-72
2023/09/02 09:32:12;;;;;;;4.93;2.70;;;31.60;90.00;;;;;;5074421;28;20058;-73
2023/09/02 09:34:40;;;;;;;4.57;2.42;;;32.00;88.80;;;;;;5076283;28;20592;-74
2023/09/02 09:37:08;;;;;;;5.13;2.70;;;31.80;90.20;;;;;;5075854;28;20081;-72
2023/09/02 09:39:47;;;;;;;4.55;2.38;;;32.00;86.60;;;;;;5062651;28;20496;-73
2023/09/02 09:42:17;;;;;;;4.88;2.67;;;32.00;87.00;;;;;;5072875;28;20200;-73
2023/09/02 09:44:57;;;;;;;4.65;2.70;;;31.80;87.10;;;;;;5084932;28;20039;-71
2023/09/02 09:47:24;;;;;;;6.80;2.88;;;32.10;86.40;;;;;;5074414;28;20499;-74
2023/09/02 09:49:50;;;;;;;5.68;2.80;;;32.00;89.30;;;;;;5071690;28;20423;-72
2023/09/02 09:52:19;;;;;;;5.00;2.80;;;32.30;88.20;;;;;;5072606;28;20059;-73
2023/09/02 09:54:51;;;;;;;4.05;2.50;;;32.40;86.50;;;;;;5073271;28;20040;-73
2023/09/02 09:57:36;;;;;;;4.72;2.90;;;32.00;86.30;;;;;;5072566;28;20123;-74
2023/09/02 10:00:05;;;;;;;4.95;2.65;;;32.50;86.00;;;;;;5071662;28;20134;-74
2023/09/02 10:02:30;;;;;;;5.85;2.92;;;32.70;87.00;;;;;;5065212;28;20518;-74
2023/09/02 10:04:59;;;;;;;4.68;2.78;;;32.50;86.90;;;;;;5055542;28;20040;-73
2023/09/02 10:07:33;;;;;;;4.43;2.67;;;31.80;87.60;;;;;;5050572;28;20036;-71
2023/09/02 10:10:00;;;;;;;5.38;2.67;;;30.90;86.50;;;;;;5066074;28;20063;-72
2023/09/02 10:12:33;;;;;;;4.00;2.55;;;29.90;89.70;;;;;;5092036;28;20564;-71
2023/09/02 10:14:59;;;;;;;4.80;2.80;;;29.30;90.50;;;;;;5091319;28;20044;-71
2023/09/02 10:17:25;;;;;;;5.82;2.80;;;28.70;91.00;;;;;;5079391;28;20044;-71
2023/09/02 10:19:51;;;;;;;4.57;2.63;;;28.60;91.70;;;;;;5091937;28;20032;-71
2023/09/02 10:22:20;;;;;;;5.72;1.88;;;29.20;91.80;;;;;;5070476;28;20506;-72
2023/09/02 10:24:58;;;;;;;4.93;1.80;;;29.90;90.90;;;;;;5055740;28;20047;-72
2023/09/02 10:27:26;;;;;;;4.70;1.77;;;28.90;89.80;;;;;;5070310;28;20048;-72
2023/09/02 10:29:57;;;;;;;3.45;1.70;;;28.10;91.00;;;;;;5052629;28;20052;-75
2023/09/02 10:32:28;;;;;;;3.75;1.30;;;27.40;91.40;;;;;;5053281;28;20478;-73
2023/09/02 10:35:19;;;;;;;3.40;1.23;;;26.90;92.00;;;;;;5071775;28;20399;-73
2023/09/02 10:37:54;;;;;;;3.38;1.20;;;26.90;92.80;;;;;;5055927;28;20049;-74
2023/09/02 10:40:24;;;;;;;2.97;1.23;;;27.40;92.50;;;;;;5054497;28;20054;-70
2023/09/02 10:42:50;;;;;;;2.75;1.27;;;28.00;90.90;;;;;;5053437;28;20437;-71
2023/09/02 10:45:17;;;;;;;2.50;1.20;;;28.20;91.40;;;;;;5072294;28;20044;-71
2023/09/02 10:47:44;;;;;;;3.25;1.20;;;29.00;90.90;;;;;;5072745;28;20049;-70
2023/09/02 10:50:10;;;;;;;3.17;1.05;;;29.80;90.00;;;;;;5071105;28;20116;-70
2023/09/02 10:52:36;;;;;;;2.42;1.08;;;30.00;90.00;;;;;;5070153;28;20123;-71
2023/09/02 10:55:02;;;;;;;3.47;1.30;;;30.50;90.00;;;;;;5073400;28;20058;-70
2023/09/02 10:57:29;;;;;;;2.70;1.20;;;30.70;89.10;;;;;;5091606;28;20040;-70
2023/09/02 11:00:26;;;;;;;2.45;1.05;;;30.70;87.60;;;;;;5073494;28;20048;-71
2023/09/02 11:03:01;;;;;;;2.63;1.10;;;31.00;89.00;;;;;;5091078;28;20049;-71
2023/09/02 11:05:27;;;;;;;2.38;1.10;;;31.30;87.30;;;;;;5072036;28;20058;-73
2023/09/02 11:07:54;;;;;;;2.60;1.00;;;31.60;88.20;;;;;;5073024;28;20549;-74
2023/09/02 11:10:21;;;;;;;2.95;1.30;;;31.60;88.70;;;;;;5072425;28;20066;-74
2023/09/02 11:12:59;;;;;;;2.42;1.20;;;31.40;87.30;;;;;;5085044;28;20472;-73
2023/09/02 11:15:25;;;;;;;3.13;1.17;;;31.30;87.40;;;;;;5069445;28;20446;-74
2023/09/02 11:17:51;;;;;;;3.22;1.25;;;31.70;88.10;;;;;;5053644;28;20095;-73
2023/09/02 11:20:28;;;;;;;3.00;0.93;;;31.60;87.90;;;;;;5057235;28;20361;-73
2023/09/02 11:22:59;;;;;;;2.85;1.10;;;31.70;87.90;;;;;;5057963;28;20051;-73
2023/09/02 11:25:38;;;;;;;3.28;1.05;;;31.70;86.70;;;;;;5068013;28;20121;-72
2023/09/02 11:28:06;;;;;;;2.53;0.90;;;31.60;86.60;;;;;;5053260;28;20050;-71
2023/09/02 11:30:39;;;;;;;2.28;1.00;;;31.60;87.90;;;;;;5051760;28;20036;-69
2023/09/02 11:33:06;;;;;;;2.92;1.30;;;31.50;88.20;;;;;;5053580;28;20044;-70
2023/09/02 11:35:34;;;;;;;2.85;1.10;;;31.50;89.30;;;;;;5069405;28;20439;-72
2023/09/02 11:38:01;;;;;;;1.85;0.90;;;31.80;89.10;;;;;;5086053;28;20044;-72
2023/09/02 11:40:28;;;;;;;2.83;0.90;;;31.50;87.80;;;;;;5060534;28;20037;-77
2023/09/02 11:43:01;;;;;;;2.75;1.20;;;31.70;85.90;;;;;;5053942;28;20048;-75
2023/09/02 11:45:38;;;;;;;1.98;1.00;;;31.50;88.00;;;;;;5061675;28;20033;-76
2023/09/02 11:48:06;;;;;;;4.78;1.45;;;31.00;87.70;;;;;;5080041;28;20488;-72
2023/09/02 11:50:32;;;;;;;3.50;1.20;;;30.80;88.20;;;;;;5052248;28;20044;-72
2023/09/02 11:52:58;;;;;;;2.05;1.00;;;30.80;89.00;;;;;;5069275;28;20361;-72
2023/09/02 11:55:25;;;;;;;3.72;1.10;;;30.90;88.40;;;;;;5073040;28;20106;-73
2023/09/02 11:57:52;;;;;;;2.20;0.95;;;30.30;87.60;;;;;;5071330;28;20048;-72
2023/09/02 12:00:25;;;;;;;3.65;1.00;;;30.40;89.60;;;;;;5091275;28;20080;-73
2023/09/02 12:02:56;;;;;;;3.72;1.02;;;30.70;87.20;;;;;;5066918;28;20048;-73
2023/09/02 12:05:22;;;;;;;2.45;1.00;;;30.80;88.30;;;;;;5054573;28;20044;-73
2023/09/02 12:07:50;;;;;;;3.25;1.00;;;30.90;87.80;;;;;;5053765;28;20052;-72
2023/09/02 12:10:17;;;;;;;2.30;1.10;;;30.80;87.60;;;;;;5073705;28;20075;-71
2023/09/02 12:12:49;;;;;;;1.60;0.90;;;30.90;87.30;;;;;;5075948;28;20049;-71
2023/09/02 12:15:17;;;;;;;2.58;1.20;;;30.40;87.90;;;;;;5073594;28;20522;-71
2023/09/02 12:17:44;;;;;;;2.40;1.00;;;30.30;88.30;;;;;;5069740;28;20193;-74
2023/09/02 12:20:12;;;;;;;1.80;1.00;;;29.70;89.80;;;;;;5056667;28;20044;-72
2023/09/02 12:22:39;;;;;;;2.40;1.10;;;29.50;91.50;;;;;;5056227;28;20044;-71
2023/09/02 12:25:22;;;;;;;2.10;0.90;;;29.70;90.50;;;;;;5055858;28;20048;-73
2023/09/02 12:27:48;;;;;;;2.17;1.10;;;29.90;90.50;;;;;;5085562;28;20028;-71
2023/09/02 12:30:28;;;;;;;2.47;1.30;;;30.30;90.40;;;;;;5066830;28;20510;-73
2023/09/02 12:32:59;;;;;;;3.80;1.23;;;30.50;90.10;;;;;;5074385;28;20044;-74
2023/09/02 12:35:25;;;;;;;3.22;1.20;;;30.00;89.40;;;;;;5070259;28;20067;-72
2023/09/02 12:38:05;;;;;;;2.38;1.15;;;30.20;90.80;;;;;;5070780;28;20046;-72
2023/09/02 12:40:32;;;;;;;2.42;1.10;;;30.40;90.40;;;;;;5078993;28;20055;-72
2023/09/02 12:42:59;;;;;;;2.45;1.10;;;30.50;90.10;;;;;;5055343;28;20040;-71
2023/09/02 12:45:32;;;;;;;2.00;1.10;;;30.50;90.30;;;;;;5056997;28;20410;-71
2023/09/02 12:48:01;;;;;;;3.75;1.25;;;30.60;90.20;;;;;;5053859;28;20506;-71